createdAt,value
2022-10-09T00:00:04.616Z,3.10
2022-10-09T00:00:14.685Z,2.80
2022-10-09T00:00:24.668Z,2.80
2022-10-09T00:00:34.497Z,3.00
2022-10-09T00:00:44.596Z,3.10
2022-10-09T00:00:54.654Z,3.10
2022-10-09T00:01:04.556Z,3.10
2022-10-09T00:01:14.577Z,3.00
2022-10-09T00:01:24.626Z,3.10
2022-10-09T00:01:34.488Z,2.90
2022-10-09T00:01:44.635Z,2.70
2022-10-09T00:01:54.532Z,2.80
2022-10-09T00:02:04.681Z,2.90
2022-10-09T00:02:14.687Z,3.00
2022-10-09T00:02:24.725Z,3.00
2022-10-09T00:02:34.578Z,2.90
2022-10-09T00:02:44.495Z,3.20
2022-10-09T00:02:54.686Z,2.90
2022-10-09T00:03:04.528Z,3.10
2022-10-09T00:03:14.599Z,3.00
2022-10-09T00:03:24.549Z,3.20
2022-10-09T00:03:34.667Z,3.10
2022-10-09T00:03:44.478Z,2.90
2022-10-09T00:03:54.689Z,3.10
2022-10-09T00:04:04.688Z,3.10
2022-10-09T00:04:14.678Z,3.20
2022-10-09T00:04:24.547Z,3.00
2022-10-09T00:04:34.553Z,2.90
2022-10-09T00:04:44.611Z,2.90
2022-10-09T00:04:54.635Z,2.80
2022-10-09T00:05:04.533Z,2.90
2022-10-09T00:05:14.486Z,2.90
2022-10-09T00:05:24.540Z,3.10
2022-10-09T00:05:34.474Z,2.90
2022-10-09T00:05:44.611Z,2.80
2022-10-09T00:05:54.503Z,2.70
2022-10-09T00:06:04.418Z,2.80
2022-10-09T00:06:14.704Z,2.80
2022-10-09T00:06:24.530Z,2.70
2022-10-09T00:06:34.423Z,2.80
2022-10-09T00:06:44.458Z,2.70
2022-10-09T00:06:54.542Z,2.70
2022-10-09T00:07:04.572Z,2.60
2022-10-09T00:07:14.667Z,2.70
2022-10-09T00:07:24.694Z,2.90
2022-10-09T00:07:34.648Z,2.80
2022-10-09T00:07:44.678Z,2.80
2022-10-09T00:07:54.658Z,2.80
2022-10-09T00:08:04.448Z,3.00
2022-10-09T00:08:14.701Z,3.20
2022-10-09T00:08:24.721Z,3.50
2022-10-09T00:08:34.613Z,3.60
2022-10-09T00:08:44.511Z,3.40
2022-10-09T00:08:54.429Z,3.20
2022-10-09T00:09:04.529Z,3.10
2022-10-09T00:09:14.411Z,3.30
2022-10-09T00:09:24.431Z,3.30
2022-10-09T00:09:34.518Z,3.40
2022-10-09T00:09:44.480Z,3.40
2022-10-09T00:09:54.676Z,3.30
2022-10-09T00:10:04.638Z,3.30
2022-10-09T00:10:14.538Z,3.30
2022-10-09T00:10:24.682Z,3.30
2022-10-09T00:10:34.674Z,3.50
2022-10-09T00:10:44.561Z,3.30
2022-10-09T00:10:54.671Z,3.40
2022-10-09T00:11:04.593Z,3.30
2022-10-09T00:11:14.590Z,3.40
2022-10-09T00:11:24.464Z,3.50
2022-10-09T00:11:34.455Z,3.40
2022-10-09T00:11:44.544Z,3.70
2022-10-09T00:11:54.640Z,3.90
2022-10-09T00:12:04.592Z,3.70
2022-10-09T00:12:14.487Z,3.50
2022-10-09T00:12:24.622Z,3.30
2022-10-09T00:12:34.636Z,3.30
2022-10-09T00:12:44.582Z,3.20
2022-10-09T00:12:54.684Z,3.20
2022-10-09T00:13:04.566Z,3.20
2022-10-09T00:13:14.641Z,3.20
2022-10-09T00:13:24.662Z,3.30
2022-10-09T00:13:34.609Z,3.20
2022-10-09T00:13:44.716Z,3.20
2022-10-09T00:13:54.447Z,3.20
2022-10-09T00:14:04.535Z,3.40
2022-10-09T00:14:14.615Z,3.30
2022-10-09T00:14:24.533Z,3.10
2022-10-09T00:14:34.490Z,3.00
2022-10-09T00:14:44.446Z,3.10
2022-10-09T00:14:54.439Z,3.30
2022-10-09T00:15:04.700Z,3.40
2022-10-09T00:15:14.644Z,3.40
2022-10-09T00:15:24.499Z,3.30
2022-10-09T00:15:34.633Z,3.20
2022-10-09T00:15:44.436Z,3.20
2022-10-09T00:15:54.648Z,3.30
2022-10-09T00:16:04.477Z,3.10
2022-10-09T00:16:14.502Z,3.30
2022-10-09T00:16:24.552Z,3.50
2022-10-09T00:16:34.575Z,3.70
2022-10-09T00:16:44.628Z,3.70
2022-10-09T00:16:54.625Z,3.40
2022-10-09T00:17:04.613Z,3.40
2022-10-09T00:17:14.646Z,3.30
2022-10-09T00:17:24.535Z,3.30
2022-10-09T00:17:34.688Z,3.40
2022-10-09T00:17:47.181Z,3.50
2022-10-09T00:17:54.457Z,3.60
2022-10-09T00:18:04.484Z,3.70
2022-10-09T00:18:14.477Z,3.70
2022-10-09T00:18:24.461Z,3.70
2022-10-09T00:18:34.682Z,3.50
2022-10-09T00:18:44.516Z,3.60
2022-10-09T00:18:54.403Z,3.40
2022-10-09T00:19:04.463Z,3.50
2022-10-09T00:19:14.644Z,3.60
2022-10-09T00:19:24.573Z,3.70
2022-10-09T00:19:34.476Z,3.80
2022-10-09T00:19:44.561Z,3.70
2022-10-09T00:19:54.648Z,3.60
2022-10-09T00:20:04.689Z,3.80
2022-10-09T00:20:14.428Z,3.80
2022-10-09T00:20:24.483Z,3.90
2022-10-09T00:20:34.426Z,3.70
2022-10-09T00:20:44.478Z,3.70
2022-10-09T00:20:54.624Z,3.70
2022-10-09T00:21:04.685Z,3.60
2022-10-09T00:21:14.450Z,3.70
2022-10-09T00:21:24.658Z,3.70
2022-10-09T00:21:34.680Z,3.70
2022-10-09T00:21:44.669Z,3.80
2022-10-09T00:21:54.534Z,4.00
2022-10-09T00:22:04.612Z,4.00
2022-10-09T00:22:14.706Z,4.00
2022-10-09T00:22:26.526Z,3.90
2022-10-09T00:22:34.490Z,3.60
2022-10-09T00:22:44.485Z,3.70
2022-10-09T00:22:54.489Z,3.50
2022-10-09T00:23:04.529Z,3.70
2022-10-09T00:23:14.456Z,3.70
2022-10-09T00:23:24.514Z,3.80
2022-10-09T00:23:34.409Z,3.80
2022-10-09T00:23:44.547Z,3.70
2022-10-09T00:23:54.563Z,3.80
2022-10-09T00:24:04.540Z,3.70
2022-10-09T00:24:14.687Z,3.60
2022-10-09T00:24:24.660Z,3.50
2022-10-09T00:24:34.671Z,3.80
2022-10-09T00:24:44.707Z,3.80
2022-10-09T00:24:54.580Z,3.90
2022-10-09T00:25:04.684Z,3.80
2022-10-09T00:25:14.549Z,3.80
2022-10-09T00:25:24.625Z,3.90
2022-10-09T00:25:34.547Z,3.70
2022-10-09T00:25:44.661Z,3.80
2022-10-09T00:25:54.582Z,3.70
2022-10-09T00:26:04.470Z,3.80
2022-10-09T00:26:14.468Z,3.60
2022-10-09T00:26:24.655Z,3.60
2022-10-09T00:26:34.720Z,3.70
2022-10-09T00:26:44.466Z,3.90
2022-10-09T00:26:54.519Z,3.70
2022-10-09T00:27:04.635Z,3.60
2022-10-09T00:27:14.641Z,3.60
2022-10-09T00:27:24.617Z,3.60
2022-10-09T00:27:34.489Z,3.60
2022-10-09T00:27:44.603Z,3.50
2022-10-09T00:27:54.458Z,3.60
2022-10-09T00:28:04.630Z,3.60
2022-10-09T00:28:14.572Z,3.70
2022-10-09T00:28:24.779Z,3.50
2022-10-09T00:28:38.517Z,3.50
2022-10-09T00:28:44.627Z,3.70
2022-10-09T00:28:54.492Z,3.80
2022-10-09T00:29:04.513Z,3.80
2022-10-09T00:29:14.699Z,3.70
2022-10-09T00:29:24.448Z,3.70
2022-10-09T00:29:34.601Z,3.60
2022-10-09T00:29:44.461Z,3.60
2022-10-09T00:29:54.532Z,3.60
2022-10-09T00:30:04.450Z,3.50
2022-10-09T00:30:14.654Z,3.70
2022-10-09T00:30:24.485Z,3.70
2022-10-09T00:30:34.749Z,3.60
2022-10-09T00:30:44.672Z,3.50
2022-10-09T00:30:54.724Z,3.50
2022-10-09T00:31:04.613Z,3.50
2022-10-09T00:31:14.571Z,3.30
2022-10-09T00:31:24.681Z,3.20
2022-10-09T00:31:34.499Z,3.40
2022-10-09T00:31:44.650Z,3.50
2022-10-09T00:31:54.593Z,3.70
2022-10-09T00:32:04.513Z,3.50
2022-10-09T00:32:14.711Z,3.40
2022-10-09T00:32:24.495Z,3.40
2022-10-09T00:32:34.625Z,3.50
2022-10-09T00:32:44.652Z,3.50
2022-10-09T00:32:54.664Z,3.40
2022-10-09T00:33:04.539Z,3.40
2022-10-09T00:33:14.516Z,3.40
2022-10-09T00:33:24.745Z,3.50
2022-10-09T00:33:34.676Z,3.30
2022-10-09T00:33:44.462Z,3.30
2022-10-09T00:33:54.485Z,3.30
2022-10-09T00:34:04.641Z,3.60
2022-10-09T00:34:14.559Z,3.50
2022-10-09T00:34:24.483Z,3.30
2022-10-09T00:34:34.506Z,3.20
2022-10-09T00:34:44.547Z,3.20
2022-10-09T00:34:54.649Z,3.10
2022-10-09T00:35:04.526Z,3.00
2022-10-09T00:35:14.480Z,3.00
2022-10-09T00:35:24.663Z,3.00
2022-10-09T00:35:34.427Z,3.10
2022-10-09T00:35:44.662Z,3.00
2022-10-09T00:35:54.544Z,3.20
2022-10-09T00:36:04.568Z,3.20
2022-10-09T00:36:14.576Z,3.10
2022-10-09T00:36:24.672Z,2.80
2022-10-09T00:36:34.647Z,3.00
2022-10-09T00:36:44.523Z,3.10
2022-10-09T00:36:54.638Z,3.30
2022-10-09T00:37:04.446Z,3.20
2022-10-09T00:37:14.663Z,3.10
2022-10-09T00:37:24.664Z,3.00
2022-10-09T00:37:34.682Z,3.10
2022-10-09T00:37:44.446Z,3.20
2022-10-09T00:37:54.528Z,3.50
2022-10-09T00:38:04.469Z,3.40
2022-10-09T00:38:18.196Z,3.60
2022-10-09T00:38:24.587Z,3.50
2022-10-09T00:38:34.552Z,3.60
2022-10-09T00:38:44.670Z,3.20
2022-10-09T00:38:54.566Z,3.20
2022-10-09T00:39:04.736Z,3.00
2022-10-09T00:39:14.537Z,3.20
2022-10-09T00:39:24.483Z,3.30
2022-10-09T00:39:34.712Z,3.50
2022-10-09T00:39:44.682Z,3.40
2022-10-09T00:39:54.702Z,3.40
2022-10-09T00:40:04.678Z,3.30
2022-10-09T00:40:14.498Z,3.10
2022-10-09T00:40:24.451Z,3.10
2022-10-09T00:40:34.642Z,3.30
2022-10-09T00:40:44.534Z,3.60
2022-10-09T00:40:54.498Z,3.80
2022-10-09T00:41:04.589Z,3.70
2022-10-09T00:41:14.535Z,3.50
2022-10-09T00:41:24.477Z,3.10
2022-10-09T00:41:34.701Z,3.00
2022-10-09T00:41:44.438Z,3.10
2022-10-09T00:41:54.566Z,3.20
2022-10-09T00:42:04.681Z,3.40
2022-10-09T00:42:14.652Z,3.40
2022-10-09T00:42:24.456Z,3.40
2022-10-09T00:42:34.635Z,3.50
2022-10-09T00:42:44.597Z,3.60
2022-10-09T00:42:54.628Z,3.60
2022-10-09T00:43:04.492Z,3.70
2022-10-09T00:43:14.584Z,3.80
2022-10-09T00:43:24.544Z,3.80
2022-10-09T00:43:34.618Z,3.60
2022-10-09T00:43:44.449Z,3.60
2022-10-09T00:43:54.628Z,3.60
2022-10-09T00:44:04.580Z,3.80
2022-10-09T00:44:14.457Z,3.90
2022-10-09T00:44:24.493Z,3.90
2022-10-09T00:44:34.600Z,4.00
2022-10-09T00:44:44.668Z,4.10
2022-10-09T00:44:54.471Z,4.20
2022-10-09T00:45:04.629Z,4.20
2022-10-09T00:45:14.720Z,3.90
2022-10-09T00:45:24.549Z,4.00
2022-10-09T00:45:34.530Z,3.90
2022-10-09T00:45:44.602Z,4.00
2022-10-09T00:45:54.590Z,3.80
2022-10-09T00:46:04.650Z,4.00
2022-10-09T00:46:14.570Z,4.20
2022-10-09T00:46:24.618Z,4.40
2022-10-09T00:46:34.857Z,4.20
2022-10-09T00:46:44.496Z,4.00
2022-10-09T00:46:54.458Z,3.90
2022-10-09T00:47:04.488Z,3.90
2022-10-09T00:47:14.637Z,4.10
2022-10-09T00:47:24.524Z,4.20
2022-10-09T00:47:34.480Z,4.40
2022-10-09T00:47:44.574Z,4.50
2022-10-09T00:47:54.524Z,4.20
2022-10-09T00:48:04.424Z,4.00
2022-10-09T00:48:14.436Z,3.70
2022-10-09T00:48:24.655Z,3.90
2022-10-09T00:48:34.569Z,3.80
2022-10-09T00:48:44.430Z,3.90
2022-10-09T00:48:54.425Z,3.70
2022-10-09T00:49:04.494Z,3.80
2022-10-09T00:49:14.419Z,4.00
2022-10-09T00:49:24.751Z,4.20
2022-10-09T00:49:34.513Z,4.10
2022-10-09T00:49:44.536Z,4.10
2022-10-09T00:49:54.626Z,3.90
2022-10-09T00:50:04.653Z,4.00
2022-10-09T00:50:14.512Z,4.00
2022-10-09T00:50:24.436Z,4.20
2022-10-09T00:50:34.439Z,4.00
2022-10-09T00:50:44.652Z,4.00
2022-10-09T00:50:54.460Z,4.10
2022-10-09T00:51:04.525Z,4.20
2022-10-09T00:51:14.466Z,4.10
2022-10-09T00:51:24.652Z,4.00
2022-10-09T00:51:34.610Z,4.00
2022-10-09T00:51:44.546Z,4.00
2022-10-09T00:51:54.507Z,4.00
2022-10-09T00:52:04.579Z,4.00
2022-10-09T00:52:14.505Z,4.30
2022-10-09T00:52:24.484Z,4.30
2022-10-09T00:52:34.612Z,4.30
2022-10-09T00:52:44.622Z,4.10
2022-10-09T00:52:54.636Z,3.90
2022-10-09T00:53:04.538Z,3.70
2022-10-09T00:53:14.445Z,3.80
2022-10-09T00:53:24.583Z,4.00
2022-10-09T00:53:34.523Z,4.10
2022-10-09T00:53:44.557Z,4.20
2022-10-09T00:53:54.582Z,4.10
2022-10-09T00:54:04.557Z,4.20
2022-10-09T00:54:14.650Z,4.10
2022-10-09T00:54:24.648Z,4.30
2022-10-09T00:54:34.572Z,4.10
2022-10-09T00:54:44.573Z,4.10
2022-10-09T00:54:54.628Z,4.00
2022-10-09T00:55:04.628Z,4.30
2022-10-09T00:55:14.430Z,4.20
2022-10-09T00:55:24.568Z,4.10
2022-10-09T00:55:34.624Z,3.90
2022-10-09T00:55:44.456Z,3.90
2022-10-09T00:55:54.419Z,4.20
2022-10-09T00:56:04.563Z,4.30
2022-10-09T00:56:14.459Z,4.40
2022-10-09T00:56:24.662Z,4.30
2022-10-09T00:56:34.611Z,4.40
2022-10-09T00:56:44.405Z,4.20
2022-10-09T00:56:54.692Z,4.20
2022-10-09T00:57:04.653Z,4.00
2022-10-09T00:57:14.413Z,4.10
2022-10-09T00:57:24.650Z,4.10
2022-10-09T00:57:34.451Z,4.10
2022-10-09T00:57:44.628Z,3.70
2022-10-09T00:57:54.506Z,3.90
2022-10-09T00:58:04.627Z,3.70
2022-10-09T00:58:14.697Z,3.80
2022-10-09T00:58:24.580Z,3.40
2022-10-09T00:58:34.535Z,3.60
2022-10-09T00:58:44.535Z,3.80
2022-10-09T00:58:54.644Z,4.00
2022-10-09T00:59:04.659Z,4.10
2022-10-09T00:59:14.646Z,4.00
2022-10-09T00:59:24.441Z,3.90
2022-10-09T00:59:34.505Z,3.70
2022-10-09T00:59:44.678Z,3.80
2022-10-09T00:59:54.559Z,4.00
2022-10-09T01:00:04.415Z,4.00
2022-10-09T01:00:14.567Z,4.00
2022-10-09T01:00:24.495Z,4.00
2022-10-09T01:00:34.678Z,4.00
2022-10-09T01:00:44.728Z,4.00
2022-10-09T01:00:54.460Z,3.80
2022-10-09T01:01:04.544Z,3.80
2022-10-09T01:01:14.756Z,4.00
2022-10-09T01:01:24.733Z,4.10
2022-10-09T01:01:34.677Z,4.00
2022-10-09T01:01:44.546Z,4.10
2022-10-09T01:01:54.623Z,3.90
2022-10-09T01:02:04.725Z,4.00
2022-10-09T01:02:14.517Z,4.00
2022-10-09T01:02:24.497Z,4.00
2022-10-09T01:02:34.702Z,4.10
2022-10-09T01:02:44.556Z,3.80
2022-10-09T01:02:54.723Z,3.80
2022-10-09T01:03:04.557Z,3.40
2022-10-09T01:03:14.533Z,3.70
2022-10-09T01:03:24.660Z,3.60
2022-10-09T01:03:34.686Z,3.90
2022-10-09T01:03:44.419Z,3.70
2022-10-09T01:03:54.444Z,4.00
2022-10-09T01:04:04.654Z,3.80
2022-10-09T01:04:14.720Z,3.90
2022-10-09T01:04:24.557Z,3.90
2022-10-09T01:04:34.423Z,3.90
2022-10-09T01:04:44.482Z,4.00
2022-10-09T01:04:54.406Z,4.00
2022-10-09T01:05:04.704Z,4.20
2022-10-09T01:05:14.617Z,4.20
2022-10-09T01:05:24.586Z,4.00
2022-10-09T01:05:34.448Z,3.90
2022-10-09T01:05:44.602Z,3.70
2022-10-09T01:05:54.700Z,4.00
2022-10-09T01:06:04.647Z,4.20
2022-10-09T01:06:14.478Z,4.50
2022-10-09T01:06:24.457Z,4.20
2022-10-09T01:06:34.494Z,4.10
2022-10-09T01:06:44.613Z,4.30
2022-10-09T01:06:54.477Z,4.20
2022-10-09T01:07:04.514Z,4.00
2022-10-09T01:07:14.593Z,3.90
2022-10-09T01:07:24.468Z,4.00
2022-10-09T01:07:34.506Z,4.10
2022-10-09T01:07:44.480Z,3.90
2022-10-09T01:07:54.503Z,3.80
2022-10-09T01:08:04.535Z,3.90
2022-10-09T01:08:14.693Z,4.00
2022-10-09T01:08:24.422Z,4.20
2022-10-09T01:08:34.693Z,4.10
2022-10-09T01:08:44.514Z,4.30
2022-10-09T01:08:54.549Z,4.20
2022-10-09T01:09:04.525Z,4.20
2022-10-09T01:09:14.409Z,3.90
2022-10-09T01:09:24.620Z,3.90
2022-10-09T01:09:34.458Z,3.70
2022-10-09T01:09:44.633Z,4.00
2022-10-09T01:09:54.459Z,4.20
2022-10-09T01:10:04.552Z,4.20
2022-10-09T01:10:14.402Z,4.20
2022-10-09T01:10:24.494Z,4.00
2022-10-09T01:10:34.554Z,4.20
2022-10-09T01:10:44.439Z,4.20
2022-10-09T01:10:54.615Z,4.30
2022-10-09T01:11:04.584Z,4.30
2022-10-09T01:11:14.627Z,4.20
2022-10-09T01:11:24.450Z,4.10
2022-10-09T01:11:34.479Z,3.90
2022-10-09T01:11:44.515Z,3.90
2022-10-09T01:11:54.442Z,4.00
2022-10-09T01:12:04.514Z,4.00
2022-10-09T01:12:14.587Z,4.20
2022-10-09T01:12:24.425Z,4.10
2022-10-09T01:12:34.413Z,4.20
2022-10-09T01:12:44.674Z,4.00
2022-10-09T01:12:54.575Z,4.00
2022-10-09T01:13:04.524Z,4.10
2022-10-09T01:13:14.488Z,4.20
2022-10-09T01:13:24.592Z,4.30
2022-10-09T01:13:34.618Z,4.00
2022-10-09T01:13:44.462Z,4.00
2022-10-09T01:13:54.539Z,3.90
2022-10-09T01:14:04.481Z,4.10
2022-10-09T01:14:14.663Z,4.30
2022-10-09T01:14:24.461Z,4.20
2022-10-09T01:14:34.520Z,4.30
2022-10-09T01:14:44.436Z,4.10
2022-10-09T01:14:54.530Z,4.00
2022-10-09T01:15:04.647Z,4.10
2022-10-09T01:15:14.561Z,4.20
2022-10-09T01:15:24.507Z,4.20
2022-10-09T01:15:34.484Z,4.10
2022-10-09T01:15:44.738Z,4.00
2022-10-09T01:15:54.602Z,3.90
2022-10-09T01:16:04.612Z,4.20
2022-10-09T01:16:14.592Z,4.20
2022-10-09T01:16:24.701Z,4.20
2022-10-09T01:16:34.603Z,4.20
2022-10-09T01:16:44.446Z,4.20
2022-10-09T01:16:54.529Z,4.30
2022-10-09T01:17:04.442Z,4.10
2022-10-09T01:17:14.577Z,4.00
2022-10-09T01:17:24.484Z,4.00
2022-10-09T01:17:34.618Z,3.90
2022-10-09T01:17:44.587Z,4.20
2022-10-09T01:17:54.664Z,4.20
2022-10-09T01:18:04.420Z,4.30
2022-10-09T01:18:14.530Z,4.20
2022-10-09T01:18:24.447Z,4.20
2022-10-09T01:18:34.510Z,4.10
2022-10-09T01:18:44.458Z,4.00
2022-10-09T01:18:54.577Z,4.00
2022-10-09T01:19:04.688Z,3.80
2022-10-09T01:19:14.425Z,4.00
2022-10-09T01:19:24.588Z,4.10
2022-10-09T01:19:34.709Z,4.20
2022-10-09T01:19:44.451Z,4.10
2022-10-09T01:19:54.532Z,4.00
2022-10-09T01:20:04.570Z,4.00
2022-10-09T01:20:14.553Z,3.80
2022-10-09T01:20:24.453Z,3.80
2022-10-09T01:20:34.572Z,3.90
2022-10-09T01:20:44.530Z,4.10
2022-10-09T01:20:54.658Z,4.30
2022-10-09T01:21:04.503Z,4.20
2022-10-09T01:21:14.545Z,4.00
2022-10-09T01:21:24.434Z,3.80
2022-10-09T01:21:34.632Z,4.10
2022-10-09T01:21:44.579Z,4.20
2022-10-09T01:21:54.541Z,4.20
2022-10-09T01:22:04.428Z,4.10
2022-10-09T01:22:14.641Z,4.10
2022-10-09T01:22:24.457Z,3.90
2022-10-09T01:22:34.435Z,3.90
2022-10-09T01:22:44.620Z,4.00
2022-10-09T01:22:54.606Z,4.20
2022-10-09T01:23:04.652Z,4.30
2022-10-09T01:23:14.616Z,4.20
2022-10-09T01:23:24.431Z,4.20
2022-10-09T01:23:34.553Z,4.10
2022-10-09T01:23:44.649Z,4.00
2022-10-09T01:23:54.535Z,4.20
2022-10-09T01:24:04.641Z,4.30
2022-10-09T01:24:14.612Z,4.10
2022-10-09T01:24:24.649Z,4.00
2022-10-09T01:24:34.474Z,3.80
2022-10-09T01:24:44.723Z,4.10
2022-10-09T01:24:54.476Z,4.00
2022-10-09T01:25:04.432Z,4.10
2022-10-09T01:25:14.597Z,4.10
2022-10-09T01:25:24.447Z,4.20
2022-10-09T01:25:34.671Z,4.20
2022-10-09T01:25:44.640Z,4.10
2022-10-09T01:25:54.563Z,3.90
2022-10-09T01:26:04.643Z,4.00
2022-10-09T01:26:14.694Z,3.90
2022-10-09T01:26:24.612Z,4.00
2022-10-09T01:26:34.440Z,4.20
2022-10-09T01:26:44.474Z,4.50
2022-10-09T01:26:54.556Z,4.40
2022-10-09T01:27:04.505Z,4.10
2022-10-09T01:27:14.682Z,4.00
2022-10-09T01:27:24.680Z,4.10
2022-10-09T01:27:34.508Z,4.00
2022-10-09T01:27:44.584Z,4.10
2022-10-09T01:27:54.609Z,4.10
2022-10-09T01:28:04.699Z,4.30
2022-10-09T01:28:14.579Z,4.10
2022-10-09T01:28:24.637Z,3.90
2022-10-09T01:28:34.486Z,3.90
2022-10-09T01:28:44.750Z,4.10
2022-10-09T01:28:54.591Z,4.10
2022-10-09T01:29:04.583Z,4.00
2022-10-09T01:29:14.643Z,4.00
2022-10-09T01:29:24.433Z,4.10
2022-10-09T01:29:34.534Z,4.30
2022-10-09T01:29:44.494Z,4.40
2022-10-09T01:29:54.499Z,4.40
2022-10-09T01:30:04.677Z,4.30
2022-10-09T01:30:14.434Z,4.10
2022-10-09T01:30:24.483Z,4.10
2022-10-09T01:30:34.700Z,4.10
2022-10-09T01:30:44.642Z,4.50
2022-10-09T01:30:54.654Z,4.40
2022-10-09T01:31:04.549Z,4.20
2022-10-09T01:31:14.716Z,4.10
2022-10-09T01:31:24.650Z,4.10
2022-10-09T01:31:34.545Z,4.50
2022-10-09T01:31:44.548Z,4.50
2022-10-09T01:31:54.440Z,4.70
2022-10-09T01:32:04.506Z,4.10
2022-10-09T01:32:14.413Z,3.90
2022-10-09T01:32:24.733Z,3.70
2022-10-09T01:32:34.435Z,3.90
2022-10-09T01:32:44.613Z,4.30
2022-10-09T01:32:54.721Z,4.30
2022-10-09T01:33:04.519Z,4.40
2022-10-09T01:33:14.500Z,4.30
2022-10-09T01:33:24.680Z,4.40
2022-10-09T01:33:34.605Z,4.30
2022-10-09T01:33:44.619Z,4.30
2022-10-09T01:33:54.433Z,4.40
2022-10-09T01:34:04.671Z,4.20
2022-10-09T01:34:14.465Z,4.30
2022-10-09T01:34:24.531Z,4.10
2022-10-09T01:34:34.479Z,4.40
2022-10-09T01:34:44.732Z,4.10
2022-10-09T01:34:54.410Z,4.20
2022-10-09T01:35:04.500Z,4.10
2022-10-09T01:35:14.551Z,4.30
2022-10-09T01:35:24.669Z,4.30
2022-10-09T01:35:34.533Z,4.60
2022-10-09T01:35:44.473Z,4.40
2022-10-09T01:35:54.596Z,4.40
2022-10-09T01:36:04.695Z,4.30
2022-10-09T01:36:14.508Z,4.30
2022-10-09T01:36:24.459Z,4.40
2022-10-09T01:36:34.657Z,4.60
2022-10-09T01:36:44.566Z,4.60
2022-10-09T01:36:54.673Z,4.80
2022-10-09T01:37:04.447Z,4.60
2022-10-09T01:37:14.613Z,4.70
2022-10-09T01:37:24.594Z,4.60
2022-10-09T01:37:34.605Z,4.50
2022-10-09T01:37:44.656Z,4.20
2022-10-09T01:37:54.470Z,4.10
2022-10-09T01:38:04.509Z,4.20
2022-10-09T01:38:14.600Z,4.50
2022-10-09T01:38:24.583Z,4.40
2022-10-09T01:38:34.489Z,4.50
2022-10-09T01:38:44.508Z,4.50
2022-10-09T01:38:54.678Z,4.70
2022-10-09T01:39:04.615Z,4.50
2022-10-09T01:39:14.608Z,4.40
2022-10-09T01:39:24.557Z,4.40
2022-10-09T01:39:34.437Z,4.50
2022-10-09T01:39:44.568Z,4.70
2022-10-09T01:39:54.697Z,4.50
2022-10-09T01:40:04.503Z,4.30
2022-10-09T01:40:14.493Z,4.10
2022-10-09T01:40:24.510Z,4.10
2022-10-09T01:40:34.472Z,4.30
2022-10-09T01:40:44.668Z,4.20
2022-10-09T01:40:54.541Z,4.10
2022-10-09T01:41:04.535Z,4.20
2022-10-09T01:41:14.623Z,4.20
2022-10-09T01:41:24.565Z,4.20
2022-10-09T01:41:34.678Z,4.20
2022-10-09T01:41:44.720Z,4.30
2022-10-09T01:41:54.499Z,4.20
2022-10-09T01:42:04.500Z,4.30
2022-10-09T01:42:14.598Z,4.10
2022-10-09T01:42:24.564Z,4.30
2022-10-09T01:42:34.488Z,4.50
2022-10-09T01:42:44.531Z,4.70
2022-10-09T01:42:54.652Z,4.60
2022-10-09T01:43:04.504Z,4.40
2022-10-09T01:43:14.642Z,4.30
2022-10-09T01:43:24.647Z,4.30
2022-10-09T01:43:34.682Z,4.20
2022-10-09T01:43:44.417Z,4.20
2022-10-09T01:43:54.446Z,4.50
2022-10-09T01:44:04.479Z,4.70
2022-10-09T01:44:14.519Z,5.00
2022-10-09T01:44:24.548Z,4.80
2022-10-09T01:44:34.592Z,4.90
2022-10-09T01:44:44.553Z,4.80
2022-10-09T01:44:54.518Z,4.80
2022-10-09T01:45:04.620Z,4.50
2022-10-09T01:45:14.425Z,4.60
2022-10-09T01:45:24.631Z,4.60
2022-10-09T01:45:34.706Z,4.70
2022-10-09T01:45:44.548Z,4.50
2022-10-09T01:45:54.552Z,4.70
2022-10-09T01:46:04.580Z,4.90
2022-10-09T01:46:14.662Z,5.00
2022-10-09T01:46:24.627Z,5.00
2022-10-09T01:46:34.460Z,4.90
2022-10-09T01:46:44.642Z,4.90
2022-10-09T01:46:54.507Z,4.80
2022-10-09T01:47:04.600Z,4.70
2022-10-09T01:47:14.630Z,4.80
2022-10-09T01:47:24.521Z,5.00
2022-10-09T01:47:34.490Z,5.20
2022-10-09T01:47:44.549Z,5.20
2022-10-09T01:47:54.516Z,5.00
2022-10-09T01:48:04.577Z,4.80
2022-10-09T01:48:14.741Z,4.60
2022-10-09T01:48:24.416Z,4.80
2022-10-09T01:48:34.588Z,5.10
2022-10-09T01:48:44.601Z,5.40
2022-10-09T01:48:54.535Z,4.80
2022-10-09T01:49:04.517Z,4.60
2022-10-09T01:49:14.502Z,4.60
2022-10-09T01:49:24.622Z,5.00
2022-10-09T01:49:34.436Z,4.90
2022-10-09T01:49:44.621Z,4.80
2022-10-09T01:49:54.428Z,5.00
2022-10-09T01:50:04.740Z,5.00
2022-10-09T01:50:14.680Z,4.90
2022-10-09T01:50:24.483Z,4.80
2022-10-09T01:50:34.552Z,4.90
2022-10-09T01:50:44.613Z,5.30
2022-10-09T01:50:54.562Z,5.40
2022-10-09T01:51:04.623Z,5.30
2022-10-09T01:51:14.668Z,5.10
2022-10-09T01:51:24.654Z,4.80
2022-10-09T01:51:34.462Z,4.90
2022-10-09T01:51:44.489Z,4.80
2022-10-09T01:51:54.540Z,4.80
2022-10-09T01:52:04.417Z,4.50
2022-10-09T01:52:14.547Z,4.70
2022-10-09T01:52:24.445Z,4.90
2022-10-09T01:52:37.122Z,5.10
2022-10-09T01:52:44.538Z,4.90
2022-10-09T01:52:54.603Z,4.90
2022-10-09T01:53:04.500Z,5.00
2022-10-09T01:53:14.501Z,5.00
2022-10-09T01:53:24.486Z,4.90
2022-10-09T01:53:34.417Z,4.90
2022-10-09T01:53:44.597Z,5.00
2022-10-09T01:53:54.672Z,5.10
2022-10-09T01:54:04.404Z,5.20
2022-10-09T01:54:14.630Z,5.60
2022-10-09T01:54:24.686Z,5.60
2022-10-09T01:54:34.552Z,5.60
2022-10-09T01:54:44.476Z,5.20
2022-10-09T01:54:54.508Z,5.10
2022-10-09T01:55:04.671Z,4.90
2022-10-09T01:55:14.665Z,4.90
2022-10-09T01:55:24.458Z,4.90
2022-10-09T01:55:34.690Z,4.70
2022-10-09T01:55:44.717Z,4.50
2022-10-09T01:55:54.625Z,4.60
2022-10-09T01:56:04.631Z,4.90
2022-10-09T01:56:14.449Z,5.00
2022-10-09T01:56:24.748Z,5.00
2022-10-09T01:56:34.441Z,4.90
2022-10-09T01:56:44.701Z,5.10
2022-10-09T01:56:54.626Z,5.40
2022-10-09T01:57:04.435Z,5.50
2022-10-09T01:57:14.550Z,5.60
2022-10-09T01:57:24.472Z,5.80
2022-10-09T01:57:34.661Z,6.20
2022-10-09T01:57:44.439Z,6.20
2022-10-09T01:57:54.441Z,5.90
2022-10-09T01:58:04.449Z,5.70
2022-10-09T01:58:14.470Z,5.70
2022-10-09T01:58:24.600Z,5.70
2022-10-09T01:58:34.468Z,5.50
2022-10-09T01:58:44.699Z,5.50
2022-10-09T01:58:54.660Z,5.30
2022-10-09T01:59:04.476Z,5.50
2022-10-09T01:59:16.041Z,5.30
2022-10-09T01:59:24.486Z,5.50
2022-10-09T01:59:34.617Z,5.30
2022-10-09T01:59:44.443Z,5.40
2022-10-09T01:59:54.667Z,5.10
2022-10-09T02:00:04.714Z,5.40
2022-10-09T02:00:14.478Z,5.40
2022-10-09T02:00:24.548Z,5.60
2022-10-09T02:00:34.657Z,5.40
2022-10-09T02:00:44.543Z,5.30
2022-10-09T02:00:54.656Z,5.00
2022-10-09T02:01:04.417Z,5.20
2022-10-09T02:01:14.611Z,5.30
2022-10-09T02:01:24.584Z,5.50
2022-10-09T02:01:34.577Z,5.40
2022-10-09T02:01:44.583Z,5.40
2022-10-09T02:01:54.784Z,5.30
2022-10-09T02:02:04.568Z,5.50
2022-10-09T02:02:14.784Z,5.40
2022-10-09T02:02:24.723Z,5.60
2022-10-09T02:02:34.628Z,5.30
2022-10-09T02:02:44.574Z,5.40
2022-10-09T02:02:54.742Z,5.10
2022-10-09T02:03:04.612Z,5.10
2022-10-09T02:03:14.439Z,4.80
2022-10-09T02:03:24.416Z,5.00
2022-10-09T02:03:34.527Z,5.10
2022-10-09T02:03:44.565Z,5.30
2022-10-09T02:03:54.565Z,5.30
2022-10-09T02:04:04.519Z,5.10
2022-10-09T02:04:14.600Z,5.10
2022-10-09T02:04:24.612Z,5.10
2022-10-09T02:04:34.715Z,5.40
2022-10-09T02:04:44.666Z,5.40
2022-10-09T02:04:54.696Z,5.50
2022-10-09T02:05:04.503Z,5.20
2022-10-09T02:05:14.598Z,5.10
2022-10-09T02:05:24.622Z,4.90
2022-10-09T02:05:34.516Z,5.00
2022-10-09T02:05:44.656Z,4.70
2022-10-09T02:05:54.585Z,4.90
2022-10-09T02:06:04.698Z,4.90
2022-10-09T02:06:14.633Z,5.10
2022-10-09T02:06:24.686Z,5.10
2022-10-09T02:06:34.498Z,5.30
2022-10-09T02:06:44.407Z,5.50
2022-10-09T02:06:54.652Z,5.60
2022-10-09T02:07:04.645Z,5.40
2022-10-09T02:07:14.612Z,5.40
2022-10-09T02:07:24.472Z,5.20
2022-10-09T02:07:34.670Z,5.30
2022-10-09T02:07:44.701Z,5.20
2022-10-09T02:07:54.674Z,5.10
2022-10-09T02:08:04.684Z,5.00
2022-10-09T02:08:14.521Z,5.00
2022-10-09T02:08:24.715Z,5.10
2022-10-09T02:08:34.588Z,5.30
2022-10-09T02:08:44.620Z,5.20
2022-10-09T02:08:54.438Z,5.10
2022-10-09T02:09:04.520Z,5.10
2022-10-09T02:09:14.636Z,5.30
2022-10-09T02:09:24.593Z,5.60
2022-10-09T02:09:34.580Z,5.40
2022-10-09T02:09:44.492Z,5.50
2022-10-09T02:09:54.521Z,5.20
2022-10-09T02:10:05.351Z,5.30
2022-10-09T02:10:14.415Z,5.20
2022-10-09T02:10:24.423Z,5.10
2022-10-09T02:10:34.496Z,5.00
2022-10-09T02:10:44.662Z,5.10
2022-10-09T02:10:54.559Z,5.10
2022-10-09T02:11:04.470Z,5.30
2022-10-09T02:11:14.455Z,5.00
2022-10-09T02:11:24.611Z,5.10
2022-10-09T02:11:34.547Z,5.00
2022-10-09T02:11:44.515Z,5.20
2022-10-09T02:11:54.647Z,5.30
2022-10-09T02:12:04.452Z,5.20
2022-10-09T02:12:14.620Z,5.20
2022-10-09T02:12:24.632Z,5.30
2022-10-09T02:12:34.673Z,5.20
2022-10-09T02:12:44.591Z,5.00
2022-10-09T02:12:54.469Z,4.80
2022-10-09T02:13:04.483Z,4.70